sensor_id;sensor_type;location;lat;lon;timestamp;P1;durP1;ratioP1;P2;durP2;ratioP2
39956;SDS011;48483;44.640;7.494;2023-05-10T00:02:01;28.17;;;25.15;;
39956;SDS011;48483;44.640;7.494;2023-05-10T00:04:28;28.33;;;25.15;;
39956;SDS011;48483;44.640;7.494;2023-05-10T00:06:54;26.92;;;23.45;;
39956;SDS011;48483;44.640;7.494;2023-05-10T00:09:21;27.70;;;24.75;;
39956;SDS011;48483;44.640;7.494;2023-05-10T00:11:47;28.15;;;23.98;;
39956;SDS011;48483;44.640;7.494;2023-05-10T00:14:14;28.27;;;24.48;;
39956;SDS011;48483;44.640;7.494;2023-05-10T00:16:42;29.27;;;26.17;;
39956;SDS011;48483;44.640;7.494;2023-05-10T00:19:08;29.13;;;25.33;;
39956;SDS011;48483;44.640;7.494;2023-05-10T00:21:35;28.38;;;23.38;;
39956;SDS011;48483;44.640;7.494;2023-05-10T00:24:02;30.33;;;25.88;;
39956;SDS011;48483;44.640;7.494;2023-05-10T00:26:28;29.95;;;26.15;;
39956;SDS011;48483;44.640;7.494;2023-05-10T00:28:56;27.75;;;24.67;;
39956;SDS011;48483;44.640;7.494;2023-05-10T00:31:24;28.70;;;25.10;;
39956;SDS011;48483;44.640;7.494;2023-05-10T00:33:52;29.88;;;25.88;;
39956;SDS011;48483;44.640;7.494;2023-05-10T00:36:18;27.67;;;24.73;;
39956;SDS011;48483;44.640;7.494;2023-05-10T00:38:45;26.10;;;23.25;;
39956;SDS011;48483;44.640;7.494;2023-05-10T00:41:11;28.25;;;25.25;;
39956;SDS011;48483;44.640;7.494;2023-05-10T00:43:39;31.08;;;26.05;;
39956;SDS011;48483;44.640;7.494;2023-05-10T00:46:06;29.85;;;26.70;;
39956;SDS011;48483;44.640;7.494;2023-05-10T00:48:33;30.05;;;26.38;;
39956;SDS011;48483;44.640;7.494;2023-05-10T00:51:01;29.27;;;25.55;;
39956;SDS011;48483;44.640;7.494;2023-05-10T00:53:29;31.50;;;26.85;;
39956;SDS011;48483;44.640;7.494;2023-05-10T00:55:58;29.98;;;25.88;;
39956;SDS011;48483;44.640;7.494;2023-05-10T00:58:25;28.23;;;25.08;;
39956;SDS011;48483;44.640;7.494;2023-05-10T01:00:56;29.08;;;25.63;;
39956;SDS011;48483;44.640;7.494;2023-05-10T01:03:24;27.23;;;23.83;;
39956;SDS011;48483;44.640;7.494;2023-05-10T01:05:51;28.35;;;23.33;;
39956;SDS011;48483;44.640;7.494;2023-05-10T01:08:19;28.30;;;23.95;;
39956;SDS011;48483;44.640;7.494;2023-05-10T01:10:46;26.80;;;24.00;;
39956;SDS011;48483;44.640;7.494;2023-05-10T01:13:15;25.15;;;22.08;;
39956;SDS011;48483;44.640;7.494;2023-05-10T01:15:49;24.15;;;21.00;;
39956;SDS011;48483;44.640;7.494;2023-05-10T01:18:15;20.63;;;17.42;;
39956;SDS011;48483;44.640;7.494;2023-05-10T01:20:46;19.42;;;16.92;;
39956;SDS011;48483;44.640;7.494;2023-05-10T01:23:34;23.17;;;19.92;;
39956;SDS011;48483;44.640;7.494;2023-05-10T01:29:11;22.55;;;19.85;;
39956;SDS011;48483;44.640;7.494;2023-05-10T01:34:48;21.25;;;17.80;;
39956;SDS011;48483;44.640;7.494;2023-05-10T01:37:25;21.27;;;18.98;;
39956;SDS011;48483;44.640;7.494;2023-05-10T01:40:00;20.65;;;18.00;;
39956;SDS011;48483;44.640;7.494;2023-05-10T01:42:36;20.27;;;16.98;;
39956;SDS011;48483;44.640;7.494;2023-05-10T01:45:13;16.95;;;15.15;;
39956;SDS011;48483;44.640;7.494;2023-05-10T01:47:46;16.77;;;14.93;;
39956;SDS011;48483;44.640;7.494;2023-05-10T01:50:18;20.13;;;16.80;;
39956;SDS011;48483;44.640;7.494;2023-05-10T01:55:19;19.33;;;16.23;;
39956;SDS011;48483;44.640;7.494;2023-05-10T01:57:51;18.63;;;15.93;;
39956;SDS011;48483;44.640;7.494;2023-05-10T02:00:23;17.80;;;15.50;;
39956;SDS011;48483;44.640;7.494;2023-05-10T02:02:52;20.23;;;16.73;;
39956;SDS011;48483;44.640;7.494;2023-05-10T02:05:21;19.07;;;16.07;;
39956;SDS011;48483;44.640;7.494;2023-05-10T02:07:48;16.83;;;14.02;;
39956;SDS011;48483;44.640;7.494;2023-05-10T02:10:16;16.67;;;13.95;;
39956;SDS011;48483;44.640;7.494;2023-05-10T02:12:44;19.38;;;16.48;;
39956;SDS011;48483;44.640;7.494;2023-05-10T02:15:15;15.50;;;13.90;;
39956;SDS011;48483;44.640;7.494;2023-05-10T02:17:45;15.98;;;14.23;;
39956;SDS011;48483;44.640;7.494;2023-05-10T02:20:14;15.48;;;13.48;;
39956;SDS011;48483;44.640;7.494;2023-05-10T02:22:44;14.57;;;12.02;;
39956;SDS011;48483;44.640;7.494;2023-05-10T02:25:13;13.73;;;12.32;;
39956;SDS011;48483;44.640;7.494;2023-05-10T02:27:41;13.45;;;11.60;;
39956;SDS011;48483;44.640;7.494;2023-05-10T02:30:10;12.80;;;11.48;;
39956;SDS011;48483;44.640;7.494;2023-05-10T02:32:38;15.27;;;12.30;;
39956;SDS011;48483;44.640;7.494;2023-05-10T02:35:06;13.18;;;11.77;;
39956;SDS011;48483;44.640;7.494;2023-05-10T02:37:35;12.73;;;11.13;;
39956;SDS011;48483;44.640;7.494;2023-05-10T02:40:03;14.45;;;11.10;;
39956;SDS011;48483;44.640;7.494;2023-05-10T02:42:33;12.38;;;11.00;;
39956;SDS011;48483;44.640;7.494;2023-05-10T02:45:04;12.07;;;10.65;;
39956;SDS011;48483;44.640;7.494;2023-05-10T02:47:35;12.85;;;10.88;;
39956;SDS011;48483;44.640;7.494;2023-05-10T02:50:01;13.82;;;11.77;;
39956;SDS011;48483;44.640;7.494;2023-05-10T02:52:34;16.30;;;13.30;;
39956;SDS011;48483;44.640;7.494;2023-05-10T02:55:08;13.75;;;10.93;;
39956;SDS011;48483;44.640;7.494;2023-05-10T02:57:38;11.10;;;9.68;;
39956;SDS011;48483;44.640;7.494;2023-05-10T03:00:09;11.43;;;9.93;;
39956;SDS011;48483;44.640;7.494;2023-05-10T03:02:36;10.73;;;9.32;;
39956;SDS011;48483;44.640;7.494;2023-05-10T03:05:03;14.23;;;9.93;;
39956;SDS011;48483;44.640;7.494;2023-05-10T03:07:30;10.52;;;9.27;;
39956;SDS011;48483;44.640;7.494;2023-05-10T03:09:59;10.95;;;9.85;;
39956;SDS011;48483;44.640;7.494;2023-05-10T03:12:28;9.63;;;8.63;;
39956;SDS011;48483;44.640;7.494;2023-05-10T03:15:00;10.32;;;8.45;;
39956;SDS011;48483;44.640;7.494;2023-05-10T03:17:33;8.00;;;7.20;;
39956;SDS011;48483;44.640;7.494;2023-05-10T03:20:06;7.75;;;6.95;;
39956;SDS011;48483;44.640;7.494;2023-05-10T03:22:38;7.60;;;6.80;;
39956;SDS011;48483;44.640;7.494;2023-05-10T03:25:12;9.00;;;6.43;;
39956;SDS011;48483;44.640;7.494;2023-05-10T03:27:41;9.18;;;6.63;;
39956;SDS011;48483;44.640;7.494;2023-05-10T03:30:10;9.80;;;6.60;;
39956;SDS011;48483;44.640;7.494;2023-05-10T03:32:38;7.45;;;6.03;;
39956;SDS011;48483;44.640;7.494;2023-05-10T03:35:06;7.13;;;5.60;;
39956;SDS011;48483;44.640;7.494;2023-05-10T03:37:33;6.88;;;5.63;;
39956;SDS011;48483;44.640;7.494;2023-05-10T03:40:00;8.65;;;5.50;;
39956;SDS011;48483;44.640;7.494;2023-05-10T03:42:29;6.97;;;4.97;;
39956;SDS011;48483;44.640;7.494;2023-05-10T03:44:56;5.60;;;4.50;;
39956;SDS011;48483;44.640;7.494;2023-05-10T03:47:23;4.78;;;4.15;;
39956;SDS011;48483;44.640;7.494;2023-05-10T03:49:49;5.78;;;4.40;;
39956;SDS011;48483;44.640;7.494;2023-05-10T03:52:17;5.63;;;3.78;;
39956;SDS011;48483;44.640;7.494;2023-05-10T03:54:44;4.88;;;3.88;;
39956;SDS011;48483;44.640;7.494;2023-05-10T03:57:11;5.00;;;3.78;;
39956;SDS011;48483;44.640;7.494;2023-05-10T03:59:38;4.45;;;3.33;;
39956;SDS011;48483;44.640;7.494;2023-05-10T04:02:05;3.92;;;3.08;;
39956;SDS011;48483;44.640;7.494;2023-05-10T04:04:32;4.32;;;2.75;;
39956;SDS011;48483;44.640;7.494;2023-05-10T04:06:58;3.50;;;2.60;;
39956;SDS011;48483;44.640;7.494;2023-05-10T04:09:25;4.15;;;2.42;;
39956;SDS011;48483;44.640;7.494;2023-05-10T04:11:52;5.25;;;2.40;;
39956;SDS011;48483;44.640;7.494;2023-05-10T04:14:18;3.25;;;1.92;;
39956;SDS011;48483;44.640;7.494;2023-05-10T04:16:46;3.72;;;2.22;;
39956;SDS011;48483;44.640;7.494;2023-05-10T04:19:13;3.88;;;2.20;;
39956;SDS011;48483;44.640;7.494;2023-05-10T04:21:39;3.38;;;2.35;;
39956;SDS011;48483;44.640;7.494;2023-05-10T04:24:06;3.10;;;2.30;;
39956;SDS011;48483;44.640;7.494;2023-05-10T04:26:33;3.47;;;2.15;;
39956;SDS011;48483;44.640;7.494;2023-05-10T04:28:59;4.43;;;2.40;;
39956;SDS011;48483;44.640;7.494;2023-05-10T04:31:26;3.95;;;2.55;;
39956;SDS011;48483;44.640;7.494;2023-05-10T04:33:54;3.85;;;2.72;;
39956;SDS011;48483;44.640;7.494;2023-05-10T04:36:21;2.97;;;2.33;;
39956;SDS011;48483;44.640;7.494;2023-05-10T04:38:48;3.60;;;2.45;;
39956;SDS011;48483;44.640;7.494;2023-05-10T04:41:14;3.72;;;2.22;;
39956;SDS011;48483;44.640;7.494;2023-05-10T04:43:41;3.83;;;2.53;;
39956;SDS011;48483;44.640;7.494;2023-05-10T04:46:07;4.10;;;2.60;;
39956;SDS011;48483;44.640;7.494;2023-05-10T04:48:34;2.70;;;2.28;;
39956;SDS011;48483;44.640;7.494;2023-05-10T04:51:02;3.28;;;2.63;;
39956;SDS011;48483;44.640;7.494;2023-05-10T04:53:29;3.15;;;2.17;;
39956;SDS011;48483;44.640;7.494;2023-05-10T04:55:56;3.55;;;1.75;;
39956;SDS011;48483;44.640;7.494;2023-05-10T04:58:23;2.58;;;1.98;;
39956;SDS011;48483;44.640;7.494;2023-05-10T05:00:49;2.30;;;1.92;;
39956;SDS011;48483;44.640;7.494;2023-05-10T05:03:16;2.70;;;2.00;;
39956;SDS011;48483;44.640;7.494;2023-05-10T05:05:43;3.83;;;2.08;;
39956;SDS011;48483;44.640;7.494;2023-05-10T05:08:11;2.17;;;1.90;;
39956;SDS011;48483;44.640;7.494;2023-05-10T05:10:38;2.65;;;2.10;;
39956;SDS011;48483;44.640;7.494;2023-05-10T05:13:05;2.50;;;1.67;;
39956;SDS011;48483;44.640;7.494;2023-05-10T05:15:31;4.55;;;1.83;;
39956;SDS011;48483;44.640;7.494;2023-05-10T05:17:58;3.00;;;1.95;;
39956;SDS011;48483;44.640;7.494;2023-05-10T05:20:25;3.67;;;1.92;;
39956;SDS011;48483;44.640;7.494;2023-05-10T05:22:51;2.60;;;1.95;;
39956;SDS011;48483;44.640;7.494;2023-05-10T05:25:19;2.95;;;2.13;;
39956;SDS011;48483;44.640;7.494;2023-05-10T05:27:46;3.08;;;2.13;;
39956;SDS011;48483;44.640;7.494;2023-05-10T05:30:12;2.80;;;1.90;;
39956;SDS011;48483;44.640;7.494;2023-05-10T05:32:39;2.85;;;2.22;;
39956;SDS011;48483;44.640;7.494;2023-05-10T05:35:06;4.38;;;2.22;;
39956;SDS011;48483;44.640;7.494;2023-05-10T05:37:33;3.17;;;2.58;;
39956;SDS011;48483;44.640;7.494;2023-05-10T05:40:00;4.32;;;2.40;;
39956;SDS011;48483;44.640;7.494;2023-05-10T05:42:29;3.35;;;2.63;;
39956;SDS011;48483;44.640;7.494;2023-05-10T05:44:57;3.85;;;2.38;;
39956;SDS011;48483;44.640;7.494;2023-05-10T05:47:23;3.85;;;2.72;;
39956;SDS011;48483;44.640;7.494;2023-05-10T05:49:50;5.15;;;2.55;;
39956;SDS011;48483;44.640;7.494;2023-05-10T05:52:16;4.75;;;2.95;;
39956;SDS011;48483;44.640;7.494;2023-05-10T05:54:43;4.43;;;2.90;;
39956;SDS011;48483;44.640;7.494;2023-05-10T05:57:10;5.57;;;3.20;;
39956;SDS011;48483;44.640;7.494;2023-05-10T05:59:38;5.72;;;2.92;;
39956;SDS011;48483;44.640;7.494;2023-05-10T06:02:09;5.85;;;2.60;;
39956;SDS011;48483;44.640;7.494;2023-05-10T06:04:36;4.40;;;3.08;;
39956;SDS011;48483;44.640;7.494;2023-05-10T06:07:03;4.28;;;3.10;;
39956;SDS011;48483;44.640;7.494;2023-05-10T06:09:29;4.90;;;3.00;;
39956;SDS011;48483;44.640;7.494;2023-05-10T06:11:56;6.97;;;3.42;;
39956;SDS011;48483;44.640;7.494;2023-05-10T06:14:22;6.07;;;3.20;;
39956;SDS011;48483;44.640;7.494;2023-05-10T06:16:50;7.60;;;3.70;;
39956;SDS011;48483;44.640;7.494;2023-05-10T06:19:17;8.02;;;3.17;;
39956;SDS011;48483;44.640;7.494;2023-05-10T06:21:44;10.35;;;4.40;;
39956;SDS011;48483;44.640;7.494;2023-05-10T06:24:10;5.63;;;4.18;;
39956;SDS011;48483;44.640;7.494;2023-05-10T06:26:37;6.70;;;4.00;;
39956;SDS011;48483;44.640;7.494;2023-05-10T06:29:03;7.35;;;3.67;;
39956;SDS011;48483;44.640;7.494;2023-05-10T06:31:30;8.52;;;3.63;;
39956;SDS011;48483;44.640;7.494;2023-05-10T06:33:58;9.25;;;3.67;;
39956;SDS011;48483;44.640;7.494;2023-05-10T06:36:24;4.45;;;3.47;;
39956;SDS011;48483;44.640;7.494;2023-05-10T06:38:52;4.13;;;3.20;;
39956;SDS011;48483;44.640;7.494;2023-05-10T06:41:19;4.38;;;3.17;;
39956;SDS011;48483;44.640;7.494;2023-05-10T06:43:46;3.55;;;2.80;;
39956;SDS011;48483;44.640;7.494;2023-05-10T06:46:12;5.00;;;3.55;;
39956;SDS011;48483;44.640;7.494;2023-05-10T06:48:39;4.72;;;3.20;;
39956;SDS011;48483;44.640;7.494;2023-05-10T06:51:07;4.05;;;3.00;;
39956;SDS011;48483;44.640;7.494;2023-05-10T06:53:34;4.65;;;3.00;;
39956;SDS011;48483;44.640;7.494;2023-05-10T06:56:00;5.57;;;3.22;;
39956;SDS011;48483;44.640;7.494;2023-05-10T06:58:28;4.15;;;3.10;;
39956;SDS011;48483;44.640;7.494;2023-05-10T07:01:01;4.32;;;3.17;;
39956;SDS011;48483;44.640;7.494;2023-05-10T07:03:27;5.07;;;3.50;;
39956;SDS011;48483;44.640;7.494;2023-05-10T07:05:56;9.38;;;3.72;;
39956;SDS011;48483;44.640;7.494;2023-05-10T07:08:27;4.80;;;3.80;;
39956;SDS011;48483;44.640;7.494;2023-05-10T07:10:58;5.85;;;4.13;;
39956;SDS011;48483;44.640;7.494;2023-05-10T07:13:25;6.95;;;3.90;;
39956;SDS011;48483;44.640;7.494;2023-05-10T07:15:52;6.38;;;4.53;;
39956;SDS011;48483;44.640;7.494;2023-05-10T07:18:19;6.60;;;4.10;;
39956;SDS011;48483;44.640;7.494;2023-05-10T07:20:45;5.13;;;3.35;;
39956;SDS011;48483;44.640;7.494;2023-05-10T07:23:12;6.18;;;3.72;;
39956;SDS011;48483;44.640;7.494;2023-05-10T07:25:40;6.28;;;4.38;;
39956;SDS011;48483;44.640;7.494;2023-05-10T07:28:06;5.55;;;4.03;;
39956;SDS011;48483;44.640;7.494;2023-05-10T07:30:33;6.47;;;4.43;;
39956;SDS011;48483;44.640;7.494;2023-05-10T07:32:59;5.32;;;3.83;;
39956;SDS011;48483;44.640;7.494;2023-05-10T07:35:26;5.25;;;4.10;;
39956;SDS011;48483;44.640;7.494;2023-05-10T07:37:52;4.68;;;3.50;;
39956;SDS011;48483;44.640;7.494;2023-05-10T07:40:19;4.82;;;3.50;;
39956;SDS011;48483;44.640;7.494;2023-05-10T07:42:47;4.65;;;3.30;;
39956;SDS011;48483;44.640;7.494;2023-05-10T07:45:14;7.47;;;4.50;;
39956;SDS011;48483;44.640;7.494;2023-05-10T07:47:40;5.30;;;4.35;;
39956;SDS011;48483;44.640;7.494;2023-05-10T07:50:07;4.47;;;3.60;;
39956;SDS011;48483;44.640;7.494;2023-05-10T07:52:34;5.55;;;4.72;;
39956;SDS011;48483;44.640;7.494;2023-05-10T07:55:00;6.90;;;5.15;;
39956;SDS011;48483;44.640;7.494;2023-05-10T07:57:27;7.80;;;4.90;;
39956;SDS011;48483;44.640;7.494;2023-05-10T07:59:55;8.13;;;5.22;;
39956;SDS011;48483;44.640;7.494;2023-05-10T08:02:22;9.77;;;4.95;;
39956;SDS011;48483;44.640;7.494;2023-05-10T08:04:48;8.48;;;4.88;;
39956;SDS011;48483;44.640;7.494;2023-05-10T08:07:14;7.43;;;4.70;;
39956;SDS011;48483;44.640;7.494;2023-05-10T08:09:41;7.75;;;4.63;;
39956;SDS011;48483;44.640;7.494;2023-05-10T08:12:08;7.30;;;4.95;;
39956;SDS011;48483;44.640;7.494;2023-05-10T08:14:35;6.63;;;4.25;;
39956;SDS011;48483;44.640;7.494;2023-05-10T08:17:05;5.10;;;4.35;;
39956;SDS011;48483;44.640;7.494;2023-05-10T08:19:32;4.57;;;3.47;;
39956;SDS011;48483;44.640;7.494;2023-05-10T08:21:58;5.22;;;4.00;;
39956;SDS011;48483;44.640;7.494;2023-05-10T08:24:25;5.28;;;3.70;;
39956;SDS011;48483;44.640;7.494;2023-05-10T08:26:52;7.35;;;4.07;;
39956;SDS011;48483;44.640;7.494;2023-05-10T08:29:18;5.15;;;3.97;;
39956;SDS011;48483;44.640;7.494;2023-05-10T08:31:45;4.55;;;3.50;;
39956;SDS011;48483;44.640;7.494;2023-05-10T08:34:14;5.82;;;4.30;;
39956;SDS011;48483;44.640;7.494;2023-05-10T08:36:40;5.32;;;3.80;;
39956;SDS011;48483;44.640;7.494;2023-05-10T08:39:07;6.18;;;4.38;;
39956;SDS011;48483;44.640;7.494;2023-05-10T08:41:33;4.93;;;3.63;;
39956;SDS011;48483;44.640;7.494;2023-05-10T08:44:04;5.55;;;3.70;;
39956;SDS011;48483;44.640;7.494;2023-05-10T08:46:33;6.63;;;4.03;;
39956;SDS011;48483;44.640;7.494;2023-05-10T08:49:04;6.47;;;4.03;;
39956;SDS011;48483;44.640;7.494;2023-05-10T08:51:37;4.85;;;3.70;;
39956;SDS011;48483;44.640;7.494;2023-05-10T08:54:06;5.32;;;4.07;;
39956;SDS011;48483;44.640;7.494;2023-05-10T08:56:33;4.22;;;3.38;;
39956;SDS011;48483;44.640;7.494;2023-05-10T08:59:00;5.43;;;4.07;;
39956;SDS011;48483;44.640;7.494;2023-05-10T09:01:27;7.65;;;5.45;;
39956;SDS011;48483;44.640;7.494;2023-05-10T09:03:54;8.15;;;5.50;;
39956;SDS011;48483;44.640;7.494;2023-05-10T09:06:21;7.22;;;4.68;;
39956;SDS011;48483;44.640;7.494;2023-05-10T09:08:49;5.95;;;4.28;;
39956;SDS011;48483;44.640;7.494;2023-05-10T09:11:16;6.28;;;4.22;;
39956;SDS011;48483;44.640;7.494;2023-05-10T09:13:43;5.22;;;3.85;;
39956;SDS011;48483;44.640;7.494;2023-05-10T09:16:10;5.88;;;4.55;;
39956;SDS011;48483;44.640;7.494;2023-05-10T09:18:37;5.03;;;3.78;;
39956;SDS011;48483;44.640;7.494;2023-05-10T09:21:03;4.63;;;3.63;;
39956;SDS011;48483;44.640;7.494;2023-05-10T09:23:30;5.18;;;3.80;;
39956;SDS011;48483;44.640;7.494;2023-05-10T09:26:05;7.32;;;4.13;;
39956;SDS011;48483;44.640;7.494;2023-05-10T09:28:32;6.68;;;4.57;;
39956;SDS011;48483;44.640;7.494;2023-05-10T09:30:59;6.22;;;4.40;;
39956;SDS011;48483;44.640;7.494;2023-05-10T09:33:25;4.60;;;3.45;;
39956;SDS011;48483;44.640;7.494;2023-05-10T09:35:52;4.78;;;3.10;;
39956;SDS011;48483;44.640;7.494;2023-05-10T09:38:18;7.50;;;4.75;;
39956;SDS011;48483;44.640;7.494;2023-05-10T09:40:50;4.72;;;3.42;;
39956;SDS011;48483;44.640;7.494;2023-05-10T09:43:22;5.57;;;3.70;;
39956;SDS011;48483;44.640;7.494;2023-05-10T09:45:49;4.78;;;3.67;;
39956;SDS011;48483;44.640;7.494;2023-05-10T09:48:16;9.70;;;6.43;;
39956;SDS011;48483;44.640;7.494;2023-05-10T09:50:42;4.50;;;3.90;;
39956;SDS011;48483;44.640;7.494;2023-05-10T09:53:09;4.38;;;3.47;;
39956;SDS011;48483;44.640;7.494;2023-05-10T09:55:41;5.90;;;4.03;;
39956;SDS011;48483;44.640;7.494;2023-05-10T09:58:12;5.53;;;4.30;;
39956;SDS011;48483;44.640;7.494;2023-05-10T10:00:41;6.38;;;4.20;;
39956;SDS011;48483;44.640;7.494;2023-05-10T10:03:12;6.18;;;4.90;;
39956;SDS011;48483;44.640;7.494;2023-05-10T10:08:08;6.15;;;4.65;;
39956;SDS011;48483;44.640;7.494;2023-05-10T10:10:35;9.07;;;4.85;;
39956;SDS011;48483;44.640;7.494;2023-05-10T10:13:02;4.93;;;4.13;;
39956;SDS011;48483;44.640;7.494;2023-05-10T10:15:29;5.05;;;4.32;;
39956;SDS011;48483;44.640;7.494;2023-05-10T10:17:57;4.55;;;3.42;;
39956;SDS011;48483;44.640;7.494;2023-05-10T10:20:25;5.03;;;4.00;;
39956;SDS011;48483;44.640;7.494;2023-05-10T10:22:53;4.80;;;3.88;;
39956;SDS011;48483;44.640;7.494;2023-05-10T10:25:20;5.05;;;4.03;;
39956;SDS011;48483;44.640;7.494;2023-05-10T10:27:55;3.83;;;3.13;;
39956;SDS011;48483;44.640;7.494;2023-05-10T10:30:35;4.43;;;3.35;;
39956;SDS011;48483;44.640;7.494;2023-05-10T10:33:18;3.92;;;3.10;;
39956;SDS011;48483;44.640;7.494;2023-05-10T10:36:05;5.25;;;3.70;;
39956;SDS011;48483;44.640;7.494;2023-05-10T10:41:29;8.38;;;6.80;;
39956;SDS011;48483;44.640;7.494;2023-05-10T10:47:03;18.10;;;14.93;;
39956;SDS011;48483;44.640;7.494;2023-05-10T10:49:43;39.25;;;32.95;;
39956;SDS011;48483;44.640;7.494;2023-05-10T10:52:24;13.82;;;11.18;;
39956;SDS011;48483;44.640;7.494;2023-05-10T10:54:59;21.52;;;17.73;;
39956;SDS011;48483;44.640;7.494;2023-05-10T10:57:28;49.95;;;42.22;;
39956;SDS011;48483;44.640;7.494;2023-05-10T11:02:49;16.20;;;12.90;;
39956;SDS011;48483;44.640;7.494;2023-05-10T11:08:10;19.88;;;13.57;;
39956;SDS011;48483;44.640;7.494;2023-05-10T11:10:39;12.75;;;10.05;;
39956;SDS011;48483;44.640;7.494;2023-05-10T11:13:07;13.55;;;12.02;;
39956;SDS011;48483;44.640;7.494;2023-05-10T11:15:36;50.15;;;41.50;;
39956;SDS011;48483;44.640;7.494;2023-05-10T11:18:19;21.45;;;18.20;;
39956;SDS011;48483;44.640;7.494;2023-05-10T11:20:51;25.42;;;21.25;;
39956;SDS011;48483;44.640;7.494;2023-05-10T11:23:18;19.77;;;16.52;;
39956;SDS011;48483;44.640;7.494;2023-05-10T11:25:47;51.63;;;43.65;;
39956;SDS011;48483;44.640;7.494;2023-05-10T11:28:16;67.63;;;54.70;;
39956;SDS011;48483;44.640;7.494;2023-05-10T11:30:44;71.90;;;56.28;;
39956;SDS011;48483;44.640;7.494;2023-05-10T11:33:14;32.50;;;27.45;;
39956;SDS011;48483;44.640;7.494;2023-05-10T11:35:42;13.95;;;8.07;;
39956;SDS011;48483;44.640;7.494;2023-05-10T11:38:10;9.00;;;4.88;;
39956;SDS011;48483;44.640;7.494;2023-05-10T11:40:39;5.63;;;3.83;;
39956;SDS011;48483;44.640;7.494;2023-05-10T11:43:06;4.80;;;3.58;;
39956;SDS011;48483;44.640;7.494;2023-05-10T11:45:35;5.43;;;3.70;;
39956;SDS011;48483;44.640;7.494;2023-05-10T11:48:02;4.43;;;3.33;;
39956;SDS011;48483;44.640;7.494;2023-05-10T11:50:29;4.97;;;2.90;;
39956;SDS011;48483;44.640;7.494;2023-05-10T11:52:56;4.03;;;2.83;;
39956;SDS011;48483;44.640;7.494;2023-05-10T11:55:24;3.88;;;3.05;;
39956;SDS011;48483;44.640;7.494;2023-05-10T11:57:53;6.10;;;3.70;;
39956;SDS011;48483;44.640;7.494;2023-05-10T12:00:20;5.45;;;3.70;;
39956;SDS011;48483;44.640;7.494;2023-05-10T12:02:47;4.32;;;3.85;;
39956;SDS011;48483;44.640;7.494;2023-05-10T12:05:14;6.03;;;3.20;;
39956;SDS011;48483;44.640;7.494;2023-05-10T12:07:41;4.15;;;2.92;;
39956;SDS011;48483;44.640;7.494;2023-05-10T12:10:09;5.18;;;2.97;;
39956;SDS011;48483;44.640;7.494;2023-05-10T12:12:41;6.80;;;3.55;;
39956;SDS011;48483;44.640;7.494;2023-05-10T12:15:12;4.47;;;3.40;;
39956;SDS011;48483;44.640;7.494;2023-05-10T12:17:44;3.95;;;3.42;;
39956;SDS011;48483;44.640;7.494;2023-05-10T12:20:18;3.72;;;2.95;;
39956;SDS011;48483;44.640;7.494;2023-05-10T12:22:46;4.53;;;3.33;;
39956;SDS011;48483;44.640;7.494;2023-05-10T12:25:15;4.38;;;3.45;;
39956;SDS011;48483;44.640;7.494;2023-05-10T12:27:48;10.18;;;7.00;;
39956;SDS011;48483;44.640;7.494;2023-05-10T12:30:20;8.70;;;6.88;;
39956;SDS011;48483;44.640;7.494;2023-05-10T12:32:48;5.43;;;4.32;;
39956;SDS011;48483;44.640;7.494;2023-05-10T12:35:15;4.25;;;3.30;;
39956;SDS011;48483;44.640;7.494;2023-05-10T12:37:42;5.68;;;4.10;;
39956;SDS011;48483;44.640;7.494;2023-05-10T12:40:09;5.03;;;4.53;;
39956;SDS011;48483;44.640;7.494;2023-05-10T12:42:37;6.65;;;4.30;;
39956;SDS011;48483;44.640;7.494;2023-05-10T12:45:06;6.32;;;5.00;;
39956;SDS011;48483;44.640;7.494;2023-05-10T12:47:34;12.30;;;10.95;;
39956;SDS011;48483;44.640;7.494;2023-05-10T12:50:01;14.60;;;12.43;;
39956;SDS011;48483;44.640;7.494;2023-05-10T12:52:29;18.30;;;14.50;;
39956;SDS011;48483;44.640;7.494;2023-05-10T12:54:58;14.43;;;11.25;;
39956;SDS011;48483;44.640;7.494;2023-05-10T12:57:25;22.67;;;17.55;;
39956;SDS011;48483;44.640;7.494;2023-05-10T12:59:53;19.40;;;15.98;;
39956;SDS011;48483;44.640;7.494;2023-05-10T13:02:21;22.95;;;19.25;;
39956;SDS011;48483;44.640;7.494;2023-05-10T13:04:49;19.27;;;16.38;;
39956;SDS011;48483;44.640;7.494;2023-05-10T13:07:16;11.15;;;10.00;;
39956;SDS011;48483;44.640;7.494;2023-05-10T13:09:42;10.43;;;8.23;;
39956;SDS011;48483;44.640;7.494;2023-05-10T13:12:09;24.98;;;20.42;;
39956;SDS011;48483;44.640;7.494;2023-05-10T13:14:35;10.93;;;9.05;;
39956;SDS011;48483;44.640;7.494;2023-05-10T13:17:02;16.90;;;14.40;;
39956;SDS011;48483;44.640;7.494;2023-05-10T13:19:30;18.35;;;15.07;;
39956;SDS011;48483;44.640;7.494;2023-05-10T13:21:57;12.52;;;10.40;;
39956;SDS011;48483;44.640;7.494;2023-05-10T13:24:23;10.88;;;8.95;;
39956;SDS011;48483;44.640;7.494;2023-05-10T13:26:50;10.85;;;9.25;;
39956;SDS011;48483;44.640;7.494;2023-05-10T13:29:17;7.25;;;6.53;;
39956;SDS011;48483;44.640;7.494;2023-05-10T13:31:43;8.90;;;8.00;;
39956;SDS011;48483;44.640;7.494;2023-05-10T13:34:10;7.55;;;6.20;;
39956;SDS011;48483;44.640;7.494;2023-05-10T13:36:38;9.60;;;7.15;;
39956;SDS011;48483;44.640;7.494;2023-05-10T13:39:05;11.60;;;9.95;;
39956;SDS011;48483;44.640;7.494;2023-05-10T13:41:31;8.70;;;7.45;;
39956;SDS011;48483;44.640;7.494;2023-05-10T13:43:58;10.85;;;8.60;;
39956;SDS011;48483;44.640;7.494;2023-05-10T13:46:24;10.07;;;8.13;;
39956;SDS011;48483;44.640;7.494;2023-05-10T13:48:51;10.90;;;9.80;;
39956;SDS011;48483;44.640;7.494;2023-05-10T13:51:17;7.85;;;6.68;;
39956;SDS011;48483;44.640;7.494;2023-05-10T13:53:45;7.90;;;7.10;;
39956;SDS011;48483;44.640;7.494;2023-05-10T13:56:12;7.35;;;5.75;;
39956;SDS011;48483;44.640;7.494;2023-05-10T13:58:39;8.45;;;7.47;;
39956;SDS011;48483;44.640;7.494;2023-05-10T14:01:07;9.00;;;6.35;;
39956;SDS011;48483;44.640;7.494;2023-05-10T14:03:33;9.15;;;7.80;;
39956;SDS011;48483;44.640;7.494;2023-05-10T14:06:00;8.68;;;7.40;;
39956;SDS011;48483;44.640;7.494;2023-05-10T14:08:26;10.38;;;8.68;;
39956;SDS011;48483;44.640;7.494;2023-05-10T14:10:54;8.13;;;6.60;;
39956;SDS011;48483;44.640;7.494;2023-05-10T14:13:23;10.68;;;8.95;;
39956;SDS011;48483;44.640;7.494;2023-05-10T14:15:49;8.27;;;6.40;;
39956;SDS011;48483;44.640;7.494;2023-05-10T14:18:16;7.95;;;6.85;;
39956;SDS011;48483;44.640;7.494;2023-05-10T14:20:43;10.65;;;7.82;;
39956;SDS011;48483;44.640;7.494;2023-05-10T14:23:09;7.57;;;4.82;;
39956;SDS011;48483;44.640;7.494;2023-05-10T14:25:36;9.55;;;7.32;;
39956;SDS011;48483;44.640;7.494;2023-05-10T14:28:05;8.25;;;5.75;;
39956;SDS011;48483;44.640;7.494;2023-05-10T14:30:31;8.00;;;6.43;;
39956;SDS011;48483;44.640;7.494;2023-05-10T14:32:59;7.03;;;5.05;;
39956;SDS011;48483;44.640;7.494;2023-05-10T14:35:36;6.57;;;4.40;;
39956;SDS011;48483;44.640;7.494;2023-05-10T14:38:03;6.18;;;5.03;;
39956;SDS011;48483;44.640;7.494;2023-05-10T14:40:30;5.40;;;4.30;;
39956;SDS011;48483;44.640;7.494;2023-05-10T14:42:56;6.85;;;4.50;;
39956;SDS011;48483;44.640;7.494;2023-05-10T14:45:24;9.38;;;7.75;;
39956;SDS011;48483;44.640;7.494;2023-05-10T14:47:51;6.70;;;5.28;;
39956;SDS011;48483;44.640;7.494;2023-05-10T14:50:18;5.97;;;4.43;;
39956;SDS011;48483;44.640;7.494;2023-05-10T14:52:45;6.35;;;4.28;;
39956;SDS011;48483;44.640;7.494;2023-05-10T14:55:12;3.67;;;2.83;;
39956;SDS011;48483;44.640;7.494;2023-05-10T14:57:38;4.95;;;3.92;;
39956;SDS011;48483;44.640;7.494;2023-05-10T15:00:05;4.95;;;3.33;;
39956;SDS011;48483;44.640;7.494;2023-05-10T15:02:34;5.65;;;4.80;;
39956;SDS011;48483;44.640;7.494;2023-05-10T15:05:00;4.50;;;3.22;;
39956;SDS011;48483;44.640;7.494;2023-05-10T15:07:27;4.80;;;3.78;;
39956;SDS011;48483;44.640;7.494;2023-05-10T15:09:54;7.32;;;3.60;;